sensor_id;sensor_type;location;lat;lon;timestamp;P1;durP1;ratioP1;P2;durP2;ratioP2
39896;SDS011;25567;48.276;14.242;2022-10-31T00:00:46;46.60;;;18.63;;
39896;SDS011;25567;48.276;14.242;2022-10-31T00:03:14;44.40;;;19.52;;
39896;SDS011;25567;48.276;14.242;2022-10-31T00:05:42;88.68;;;21.55;;
39896;SDS011;25567;48.276;14.242;2022-10-31T00:08:10;128.07;;;22.05;;
39896;SDS011;25567;48.276;14.242;2022-10-31T00:10:38;88.88;;;19.88;;
39896;SDS011;25567;48.276;14.242;2022-10-31T00:13:05;100.78;;;21.58;;
39896;SDS011;25567;48.276;14.242;2022-10-31T00:15:33;61.67;;;20.02;;
39896;SDS011;25567;48.276;14.242;2022-10-31T00:18:01;97.55;;;21.20;;
39896;SDS011;25567;48.276;14.242;2022-10-31T00:20:28;54.15;;;20.45;;
39896;SDS011;25567;48.276;14.242;2022-10-31T00:22:57;52.00;;;21.38;;
39896;SDS011;25567;48.276;14.242;2022-10-31T00:25:25;62.55;;;20.65;;
39896;SDS011;25567;48.276;14.242;2022-10-31T00:27:53;60.75;;;22.63;;
39896;SDS011;25567;48.276;14.242;2022-10-31T00:30:20;55.58;;;22.90;;
39896;SDS011;25567;48.276;14.242;2022-10-31T00:32:47;71.78;;;23.65;;
39896;SDS011;25567;48.276;14.242;2022-10-31T00:35:13;64.80;;;23.38;;
39896;SDS011;25567;48.276;14.242;2022-10-31T00:37:40;56.67;;;22.20;;
39896;SDS011;25567;48.276;14.242;2022-10-31T00:40:07;62.42;;;23.45;;
39896;SDS011;25567;48.276;14.242;2022-10-31T00:42:34;61.70;;;22.33;;
39896;SDS011;25567;48.276;14.242;2022-10-31T00:45:01;58.03;;;22.13;;
39896;SDS011;25567;48.276;14.242;2022-10-31T00:47:28;64.05;;;25.30;;
39896;SDS011;25567;48.276;14.242;2022-10-31T00:49:54;61.22;;;23.17;;
39896;SDS011;25567;48.276;14.242;2022-10-31T00:52:21;77.28;;;24.83;;
39896;SDS011;25567;48.276;14.242;2022-10-31T00:54:47;75.50;;;25.15;;
39896;SDS011;25567;48.276;14.242;2022-10-31T00:57:14;69.15;;;25.60;;
39896;SDS011;25567;48.276;14.242;2022-10-31T00:59:41;111.95;;;26.23;;
39896;SDS011;25567;48.276;14.242;2022-10-31T01:02:07;69.72;;;25.65;;
39896;SDS011;25567;48.276;14.242;2022-10-31T01:04:34;67.68;;;24.75;;
39896;SDS011;25567;48.276;14.242;2022-10-31T01:07:01;108.70;;;25.58;;
39896;SDS011;25567;48.276;14.242;2022-10-31T01:09:28;147.75;;;28.17;;
39896;SDS011;25567;48.276;14.242;2022-10-31T01:11:54;139.27;;;30.45;;
39896;SDS011;25567;48.276;14.242;2022-10-31T01:14:26;143.13;;;28.70;;
39896;SDS011;25567;48.276;14.242;2022-10-31T01:16:53;115.50;;;26.02;;
39896;SDS011;25567;48.276;14.242;2022-10-31T01:19:19;141.43;;;28.17;;
39896;SDS011;25567;48.276;14.242;2022-10-31T01:21:46;64.90;;;26.42;;
39896;SDS011;25567;48.276;14.242;2022-10-31T01:24:13;71.13;;;27.45;;
39896;SDS011;25567;48.276;14.242;2022-10-31T01:26:39;67.75;;;25.35;;
39896;SDS011;25567;48.276;14.242;2022-10-31T01:29:06;67.45;;;24.85;;
39896;SDS011;25567;48.276;14.242;2022-10-31T01:31:35;68.93;;;23.55;;
39896;SDS011;25567;48.276;14.242;2022-10-31T01:34:05;118.20;;;26.48;;
39896;SDS011;25567;48.276;14.242;2022-10-31T01:36:34;93.18;;;24.05;;
39896;SDS011;25567;48.276;14.242;2022-10-31T01:39:05;114.88;;;24.02;;
39896;SDS011;25567;48.276;14.242;2022-10-31T01:41:35;72.05;;;22.65;;
39896;SDS011;25567;48.276;14.242;2022-10-31T01:46:54;90.22;;;23.48;;
39896;SDS011;25567;48.276;14.242;2022-10-31T01:49:30;57.85;;;21.83;;
39896;SDS011;25567;48.276;14.242;2022-10-31T01:52:04;80.85;;;22.50;;
39896;SDS011;25567;48.276;14.242;2022-10-31T01:54:37;136.48;;;25.80;;
39896;SDS011;25567;48.276;14.242;2022-10-31T01:57:08;101.65;;;24.13;;
39896;SDS011;25567;48.276;14.242;2022-10-31T01:59:40;57.63;;;21.50;;
39896;SDS011;25567;48.276;14.242;2022-10-31T02:02:11;92.97;;;23.23;;
39896;SDS011;25567;48.276;14.242;2022-10-31T02:04:41;116.18;;;23.92;;
39896;SDS011;25567;48.276;14.242;2022-10-31T02:07:10;116.47;;;22.38;;
39896;SDS011;25567;48.276;14.242;2022-10-31T02:09:39;100.35;;;20.58;;
39896;SDS011;25567;48.276;14.242;2022-10-31T02:12:07;93.88;;;20.13;;
39896;SDS011;25567;48.276;14.242;2022-10-31T02:14:36;63.80;;;20.08;;
39896;SDS011;25567;48.276;14.242;2022-10-31T02:17:04;96.65;;;21.52;;
39896;SDS011;25567;48.276;14.242;2022-10-31T02:22:16;126.47;;;21.42;;
39896;SDS011;25567;48.276;14.242;2022-10-31T02:30:11;66.88;;;20.05;;
39896;SDS011;25567;48.276;14.242;2022-10-31T02:35:24;46.85;;;19.90;;
39896;SDS011;25567;48.276;14.242;2022-10-31T02:38:00;49.20;;;20.73;;
39896;SDS011;25567;48.276;14.242;2022-10-31T02:40:36;51.20;;;20.08;;
39896;SDS011;25567;48.276;14.242;2022-10-31T02:48:33;53.08;;;21.15;;
39896;SDS011;25567;48.276;14.242;2022-10-31T02:51:05;124.70;;;23.67;;
39896;SDS011;25567;48.276;14.242;2022-10-31T02:53:33;86.53;;;22.75;;
39896;SDS011;25567;48.276;14.242;2022-10-31T02:56:04;91.63;;;22.35;;
39896;SDS011;25567;48.276;14.242;2022-10-31T02:58:38;56.78;;;20.02;;
39896;SDS011;25567;48.276;14.242;2022-10-31T03:06:50;122.05;;;23.02;;
39896;SDS011;25567;48.276;14.242;2022-10-31T03:09:34;51.63;;;20.88;;
39896;SDS011;25567;48.276;14.242;2022-10-31T03:12:14;52.42;;;21.35;;
39896;SDS011;25567;48.276;14.242;2022-10-31T03:14:53;81.05;;;23.85;;
39896;SDS011;25567;48.276;14.242;2022-10-31T03:17:36;91.90;;;24.35;;
39896;SDS011;25567;48.276;14.242;2022-10-31T03:20:09;136.23;;;23.70;;
39896;SDS011;25567;48.276;14.242;2022-10-31T03:22:37;73.63;;;21.55;;
39896;SDS011;25567;48.276;14.242;2022-10-31T03:25:09;83.72;;;21.42;;
39896;SDS011;25567;48.276;14.242;2022-10-31T03:27:40;72.47;;;21.85;;
39896;SDS011;25567;48.276;14.242;2022-10-31T03:30:09;57.03;;;20.80;;
39896;SDS011;25567;48.276;14.242;2022-10-31T03:32:45;72.53;;;21.67;;
39896;SDS011;25567;48.276;14.242;2022-10-31T03:35:16;65.70;;;21.85;;
39896;SDS011;25567;48.276;14.242;2022-10-31T03:37:46;116.40;;;22.90;;
39896;SDS011;25567;48.276;14.242;2022-10-31T03:40:15;100.22;;;22.30;;
39896;SDS011;25567;48.276;14.242;2022-10-31T03:42:46;130.10;;;23.33;;
39896;SDS011;25567;48.276;14.242;2022-10-31T03:45:21;110.00;;;21.40;;
39896;SDS011;25567;48.276;14.242;2022-10-31T03:47:51;90.28;;;22.85;;
39896;SDS011;25567;48.276;14.242;2022-10-31T03:50:19;44.70;;;20.70;;
39896;SDS011;25567;48.276;14.242;2022-10-31T03:52:48;48.10;;;21.52;;
39896;SDS011;25567;48.276;14.242;2022-10-31T03:55:24;54.75;;;20.85;;
39896;SDS011;25567;48.276;14.242;2022-10-31T03:58:00;74.80;;;22.35;;
39896;SDS011;25567;48.276;14.242;2022-10-31T04:00:31;53.50;;;21.10;;
39896;SDS011;25567;48.276;14.242;2022-10-31T04:03:01;57.38;;;22.45;;
39896;SDS011;25567;48.276;14.242;2022-10-31T04:05:32;54.42;;;21.50;;
39896;SDS011;25567;48.276;14.242;2022-10-31T04:08:00;63.03;;;23.70;;
39896;SDS011;25567;48.276;14.242;2022-10-31T04:10:31;83.63;;;26.88;;
39896;SDS011;25567;48.276;14.242;2022-10-31T04:13:01;64.28;;;24.67;;
39896;SDS011;25567;48.276;14.242;2022-10-31T04:15:31;75.72;;;25.83;;
39896;SDS011;25567;48.276;14.242;2022-10-31T04:17:59;69.53;;;25.20;;
39896;SDS011;25567;48.276;14.242;2022-10-31T04:20:31;83.30;;;24.80;;
39896;SDS011;25567;48.276;14.242;2022-10-31T04:22:58;85.50;;;26.20;;
39896;SDS011;25567;48.276;14.242;2022-10-31T04:25:26;95.82;;;28.33;;
39896;SDS011;25567;48.276;14.242;2022-10-31T04:27:53;74.03;;;27.80;;
39896;SDS011;25567;48.276;14.242;2022-10-31T04:30:20;162.43;;;29.98;;
39896;SDS011;25567;48.276;14.242;2022-10-31T04:32:47;100.35;;;28.70;;
39896;SDS011;25567;48.276;14.242;2022-10-31T04:35:14;141.82;;;30.45;;
39896;SDS011;25567;48.276;14.242;2022-10-31T04:37:42;108.70;;;29.45;;
39896;SDS011;25567;48.276;14.242;2022-10-31T04:40:08;83.97;;;30.42;;
39896;SDS011;25567;48.276;14.242;2022-10-31T04:42:35;135.98;;;30.92;;
39896;SDS011;25567;48.276;14.242;2022-10-31T04:45:02;85.10;;;28.67;;
39896;SDS011;25567;48.276;14.242;2022-10-31T04:47:30;108.80;;;31.50;;
39896;SDS011;25567;48.276;14.242;2022-10-31T04:49:59;106.03;;;31.00;;
39896;SDS011;25567;48.276;14.242;2022-10-31T04:52:26;120.18;;;29.60;;
39896;SDS011;25567;48.276;14.242;2022-10-31T04:54:53;119.75;;;31.95;;
39896;SDS011;25567;48.276;14.242;2022-10-31T04:57:20;131.35;;;30.70;;
39896;SDS011;25567;48.276;14.242;2022-10-31T04:59:47;117.90;;;27.70;;
39896;SDS011;25567;48.276;14.242;2022-10-31T05:02:13;121.93;;;26.42;;
39896;SDS011;25567;48.276;14.242;2022-10-31T05:04:40;104.68;;;27.73;;
39896;SDS011;25567;48.276;14.242;2022-10-31T05:07:07;129.73;;;28.25;;
39896;SDS011;25567;48.276;14.242;2022-10-31T05:09:34;90.50;;;29.38;;
39896;SDS011;25567;48.276;14.242;2022-10-31T05:12:02;102.40;;;28.92;;
39896;SDS011;25567;48.276;14.242;2022-10-31T05:14:29;82.78;;;29.00;;
39896;SDS011;25567;48.276;14.242;2022-10-31T05:16:56;78.72;;;29.13;;
39896;SDS011;25567;48.276;14.242;2022-10-31T05:19:23;89.07;;;29.65;;
39896;SDS011;25567;48.276;14.242;2022-10-31T05:21:49;89.65;;;29.95;;
39896;SDS011;25567;48.276;14.242;2022-10-31T05:24:16;96.68;;;30.80;;
39896;SDS011;25567;48.276;14.242;2022-10-31T05:26:43;93.20;;;31.15;;
39896;SDS011;25567;48.276;14.242;2022-10-31T05:29:09;85.00;;;29.98;;
39896;SDS011;25567;48.276;14.242;2022-10-31T05:31:36;94.10;;;29.08;;
39896;SDS011;25567;48.276;14.242;2022-10-31T05:34:02;74.35;;;27.63;;
39896;SDS011;25567;48.276;14.242;2022-10-31T05:36:29;77.72;;;27.10;;
39896;SDS011;25567;48.276;14.242;2022-10-31T05:38:56;76.82;;;28.05;;
39896;SDS011;25567;48.276;14.242;2022-10-31T05:41:22;89.60;;;28.60;;
39896;SDS011;25567;48.276;14.242;2022-10-31T05:43:49;96.82;;;27.10;;
39896;SDS011;25567;48.276;14.242;2022-10-31T05:46:16;117.03;;;28.65;;
39896;SDS011;25567;48.276;14.242;2022-10-31T05:48:42;103.97;;;28.92;;
39896;SDS011;25567;48.276;14.242;2022-10-31T05:51:09;90.22;;;27.17;;
39896;SDS011;25567;48.276;14.242;2022-10-31T05:53:36;94.80;;;27.10;;
39896;SDS011;25567;48.276;14.242;2022-10-31T05:56:02;94.70;;;27.75;;
39896;SDS011;25567;48.276;14.242;2022-10-31T05:58:29;113.95;;;26.38;;
39896;SDS011;25567;48.276;14.242;2022-10-31T06:00:56;108.53;;;26.15;;
39896;SDS011;25567;48.276;14.242;2022-10-31T06:03:22;75.53;;;26.15;;
39896;SDS011;25567;48.276;14.242;2022-10-31T06:05:49;106.40;;;26.35;;
39896;SDS011;25567;48.276;14.242;2022-10-31T06:08:20;95.85;;;25.60;;
39896;SDS011;25567;48.276;14.242;2022-10-31T06:10:47;81.72;;;27.10;;
39896;SDS011;25567;48.276;14.242;2022-10-31T06:13:13;90.20;;;26.10;;
39896;SDS011;25567;48.276;14.242;2022-10-31T06:15:41;84.35;;;26.77;;
39896;SDS011;25567;48.276;14.242;2022-10-31T06:18:08;73.70;;;24.42;;
39896;SDS011;25567;48.276;14.242;2022-10-31T06:20:34;84.00;;;26.45;;
39896;SDS011;25567;48.276;14.242;2022-10-31T06:23:02;123.47;;;29.50;;
39896;SDS011;25567;48.276;14.242;2022-10-31T06:25:30;205.20;;;35.65;;
39896;SDS011;25567;48.276;14.242;2022-10-31T06:27:57;79.28;;;26.30;;
39896;SDS011;25567;48.276;14.242;2022-10-31T06:30:24;73.53;;;26.52;;
39896;SDS011;25567;48.276;14.242;2022-10-31T06:32:51;71.18;;;25.50;;
39896;SDS011;25567;48.276;14.242;2022-10-31T06:35:18;84.85;;;26.25;;
39896;SDS011;25567;48.276;14.242;2022-10-31T06:37:52;78.82;;;25.65;;
39896;SDS011;25567;48.276;14.242;2022-10-31T06:40:20;64.45;;;24.65;;
39896;SDS011;25567;48.276;14.242;2022-10-31T06:42:46;64.10;;;25.05;;
39896;SDS011;25567;48.276;14.242;2022-10-31T06:45:13;71.32;;;24.60;;
39896;SDS011;25567;48.276;14.242;2022-10-31T06:47:40;70.60;;;24.60;;
39896;SDS011;25567;48.276;14.242;2022-10-31T06:50:27;70.63;;;25.75;;
39896;SDS011;25567;48.276;14.242;2022-10-31T06:52:54;74.18;;;24.98;;
39896;SDS011;25567;48.276;14.242;2022-10-31T06:55:23;69.53;;;23.58;;
39896;SDS011;25567;48.276;14.242;2022-10-31T07:00:17;66.40;;;24.60;;
39896;SDS011;25567;48.276;14.242;2022-10-31T07:02:52;63.10;;;24.77;;
39896;SDS011;25567;48.276;14.242;2022-10-31T07:05:20;69.40;;;26.20;;
39896;SDS011;25567;48.276;14.242;2022-10-31T07:07:48;76.88;;;28.73;;
39896;SDS011;25567;48.276;14.242;2022-10-31T07:10:18;74.95;;;26.65;;
39896;SDS011;25567;48.276;14.242;2022-10-31T07:12:53;67.80;;;25.48;;
39896;SDS011;25567;48.276;14.242;2022-10-31T07:17:48;73.53;;;25.38;;
39896;SDS011;25567;48.276;14.242;2022-10-31T07:20:15;71.07;;;26.13;;
39896;SDS011;25567;48.276;14.242;2022-10-31T07:22:42;69.60;;;25.85;;
39896;SDS011;25567;48.276;14.242;2022-10-31T07:25:14;73.70;;;26.88;;
39896;SDS011;25567;48.276;14.242;2022-10-31T07:27:44;76.00;;;28.05;;
39896;SDS011;25567;48.276;14.242;2022-10-31T07:30:12;90.90;;;27.42;;
39896;SDS011;25567;48.276;14.242;2022-10-31T07:32:40;77.13;;;26.92;;
39896;SDS011;25567;48.276;14.242;2022-10-31T07:35:08;81.82;;;26.48;;
39896;SDS011;25567;48.276;14.242;2022-10-31T07:37:36;68.45;;;26.10;;
39896;SDS011;25567;48.276;14.242;2022-10-31T07:40:03;98.95;;;27.83;;
39896;SDS011;25567;48.276;14.242;2022-10-31T07:42:39;91.60;;;27.10;;
39896;SDS011;25567;48.276;14.242;2022-10-31T07:45:08;90.45;;;25.08;;
39896;SDS011;25567;48.276;14.242;2022-10-31T07:47:39;72.88;;;24.75;;
39896;SDS011;25567;48.276;14.242;2022-10-31T07:50:07;66.82;;;26.15;;
39896;SDS011;25567;48.276;14.242;2022-10-31T07:52:35;81.00;;;26.65;;
39896;SDS011;25567;48.276;14.242;2022-10-31T07:55:02;85.22;;;26.67;;
39896;SDS011;25567;48.276;14.242;2022-10-31T07:57:30;74.55;;;27.20;;
39896;SDS011;25567;48.276;14.242;2022-10-31T08:00:00;115.93;;;27.20;;
39896;SDS011;25567;48.276;14.242;2022-10-31T08:02:27;71.45;;;25.90;;
39896;SDS011;25567;48.276;14.242;2022-10-31T08:04:53;82.15;;;24.38;;
39896;SDS011;25567;48.276;14.242;2022-10-31T08:07:26;83.03;;;24.98;;
39896;SDS011;25567;48.276;14.242;2022-10-31T08:09:53;93.72;;;26.70;;
39896;SDS011;25567;48.276;14.242;2022-10-31T08:12:21;83.95;;;26.17;;
39896;SDS011;25567;48.276;14.242;2022-10-31T08:14:47;92.05;;;25.42;;
39896;SDS011;25567;48.276;14.242;2022-10-31T08:17:14;78.80;;;26.00;;
39896;SDS011;25567;48.276;14.242;2022-10-31T08:19:41;115.60;;;28.20;;
39896;SDS011;25567;48.276;14.242;2022-10-31T08:22:07;86.72;;;27.65;;
39896;SDS011;25567;48.276;14.242;2022-10-31T08:24:34;87.00;;;29.27;;
39896;SDS011;25567;48.276;14.242;2022-10-31T08:27:01;82.65;;;27.15;;
39896;SDS011;25567;48.276;14.242;2022-10-31T08:29:27;124.65;;;29.42;;
39896;SDS011;25567;48.276;14.242;2022-10-31T08:31:54;106.30;;;27.27;;
39896;SDS011;25567;48.276;14.242;2022-10-31T08:34:21;123.10;;;26.52;;
39896;SDS011;25567;48.276;14.242;2022-10-31T08:36:47;99.95;;;26.80;;
39896;SDS011;25567;48.276;14.242;2022-10-31T08:39:14;93.85;;;26.20;;
39896;SDS011;25567;48.276;14.242;2022-10-31T08:41:41;142.15;;;29.58;;
39896;SDS011;25567;48.276;14.242;2022-10-31T08:44:07;148.82;;;27.35;;
39896;SDS011;25567;48.276;14.242;2022-10-31T08:46:34;136.85;;;27.17;;
39896;SDS011;25567;48.276;14.242;2022-10-31T08:49:02;99.78;;;28.40;;
39896;SDS011;25567;48.276;14.242;2022-10-31T08:51:28;162.57;;;29.67;;
39896;SDS011;25567;48.276;14.242;2022-10-31T08:53:55;175.65;;;31.27;;
39896;SDS011;25567;48.276;14.242;2022-10-31T08:56:22;143.23;;;30.55;;
39896;SDS011;25567;48.276;14.242;2022-10-31T08:58:49;119.65;;;29.02;;
39896;SDS011;25567;48.276;14.242;2022-10-31T09:01:17;129.80;;;29.42;;
39896;SDS011;25567;48.276;14.242;2022-10-31T09:03:44;72.93;;;25.40;;
39896;SDS011;25567;48.276;14.242;2022-10-31T09:06:11;77.80;;;28.58;;
39896;SDS011;25567;48.276;14.242;2022-10-31T09:08:37;98.80;;;27.42;;
39896;SDS011;25567;48.276;14.242;2022-10-31T09:11:04;79.93;;;27.40;;
39896;SDS011;25567;48.276;14.242;2022-10-31T09:13:32;81.82;;;29.25;;
39896;SDS011;25567;48.276;14.242;2022-10-31T09:16:06;146.40;;;29.50;;
39896;SDS011;25567;48.276;14.242;2022-10-31T09:18:33;81.38;;;27.52;;
39896;SDS011;25567;48.276;14.242;2022-10-31T09:21:00;92.35;;;27.17;;
39896;SDS011;25567;48.276;14.242;2022-10-31T09:23:27;150.30;;;30.33;;
39896;SDS011;25567;48.276;14.242;2022-10-31T09:25:54;103.00;;;30.60;;
39896;SDS011;25567;48.276;14.242;2022-10-31T09:28:22;107.13;;;32.47;;
39896;SDS011;25567;48.276;14.242;2022-10-31T09:30:50;94.25;;;33.65;;
39896;SDS011;25567;48.276;14.242;2022-10-31T09:33:19;105.82;;;32.78;;
39896;SDS011;25567;48.276;14.242;2022-10-31T09:35:47;113.20;;;34.80;;
39896;SDS011;25567;48.276;14.242;2022-10-31T09:38:14;101.28;;;33.78;;
39896;SDS011;25567;48.276;14.242;2022-10-31T09:40:44;115.05;;;36.03;;
39896;SDS011;25567;48.276;14.242;2022-10-31T09:48:32;137.98;;;36.90;;
39896;SDS011;25567;48.276;14.242;2022-10-31T09:51:18;131.50;;;38.05;;
39896;SDS011;25567;48.276;14.242;2022-10-31T09:56:37;118.63;;;35.38;;
39896;SDS011;25567;48.276;14.242;2022-10-31T09:59:05;136.82;;;37.03;;
39896;SDS011;25567;48.276;14.242;2022-10-31T10:07:05;104.60;;;34.88;;
39896;SDS011;25567;48.276;14.242;2022-10-31T10:09:40;122.88;;;37.00;;
39896;SDS011;25567;48.276;14.242;2022-10-31T10:12:14;127.60;;;36.38;;
39896;SDS011;25567;48.276;14.242;2022-10-31T10:14:53;123.28;;;38.83;;
39896;SDS011;25567;48.276;14.242;2022-10-31T10:22:56;148.15;;;41.92;;
39896;SDS011;25567;48.276;14.242;2022-10-31T10:25:38;116.78;;;38.33;;
39896;SDS011;25567;48.276;14.242;2022-10-31T10:33:32;126.25;;;41.63;;
39896;SDS011;25567;48.276;14.242;2022-10-31T10:36:04;122.75;;;41.75;;
39896;SDS011;25567;48.276;14.242;2022-10-31T10:41:14;129.45;;;42.15;;
39896;SDS011;25567;48.276;14.242;2022-10-31T10:43:43;154.02;;;45.25;;
39896;SDS011;25567;48.276;14.242;2022-10-31T11:03:16;163.20;;;45.92;;
39896;SDS011;25567;48.276;14.242;2022-10-31T11:05:50;148.45;;;44.38;;
39896;SDS011;25567;48.276;14.242;2022-10-31T11:08:25;140.50;;;44.38;;
39896;SDS011;25567;48.276;14.242;2022-10-31T11:14:00;155.77;;;46.75;;
39896;SDS011;25567;48.276;14.242;2022-10-31T11:16:33;165.02;;;48.58;;
39896;SDS011;25567;48.276;14.242;2022-10-31T11:19:15;170.55;;;47.10;;
39896;SDS011;25567;48.276;14.242;2022-10-31T11:21:46;171.40;;;51.30;;
39896;SDS011;25567;48.276;14.242;2022-10-31T11:24:21;211.55;;;53.78;;
39896;SDS011;25567;48.276;14.242;2022-10-31T11:26:51;225.93;;;60.75;;
39896;SDS011;25567;48.276;14.242;2022-10-31T11:29:32;219.30;;;59.03;;
39896;SDS011;25567;48.276;14.242;2022-10-31T11:31:59;226.65;;;60.70;;
39896;SDS011;25567;48.276;14.242;2022-10-31T11:37:14;206.15;;;57.67;;
39896;SDS011;25567;48.276;14.242;2022-10-31T11:39:44;240.23;;;63.75;;
39896;SDS011;25567;48.276;14.242;2022-10-31T11:42:20;238.65;;;60.05;;
39896;SDS011;25567;48.276;14.242;2022-10-31T11:44:49;248.52;;;64.00;;
39896;SDS011;25567;48.276;14.242;2022-10-31T11:47:17;237.75;;;61.08;;
39896;SDS011;25567;48.276;14.242;2022-10-31T11:49:51;214.13;;;59.35;;
39896;SDS011;25567;48.276;14.242;2022-10-31T11:52:20;238.77;;;62.47;;
39896;SDS011;25567;48.276;14.242;2022-10-31T11:54:54;278.67;;;66.95;;
39896;SDS011;25567;48.276;14.242;2022-10-31T11:57:24;262.50;;;66.00;;
39896;SDS011;25567;48.276;14.242;2022-10-31T11:59:53;240.48;;;64.47;;
39896;SDS011;25567;48.276;14.242;2022-10-31T12:02:22;280.00;;;69.75;;
39896;SDS011;25567;48.276;14.242;2022-10-31T12:04:54;257.80;;;66.70;;
39896;SDS011;25567;48.276;14.242;2022-10-31T12:07:22;212.13;;;58.78;;
39896;SDS011;25567;48.276;14.242;2022-10-31T12:09:50;283.05;;;69.13;;
39896;SDS011;25567;48.276;14.242;2022-10-31T12:15:19;222.85;;;62.35;;
39896;SDS011;25567;48.276;14.242;2022-10-31T12:17:51;255.05;;;64.82;;
39896;SDS011;25567;48.276;14.242;2022-10-31T12:23:44;224.45;;;63.45;;
39896;SDS011;25567;48.276;14.242;2022-10-31T12:32:11;205.88;;;61.97;;
39896;SDS011;25567;48.276;14.242;2022-10-31T12:35:13;200.32;;;60.63;;
39896;SDS011;25567;48.276;14.242;2022-10-31T12:43:45;178.00;;;57.95;;
39896;SDS011;25567;48.276;14.242;2022-10-31T12:46:20;207.65;;;60.63;;
39896;SDS011;25567;48.276;14.242;2022-10-31T12:51:41;201.80;;;61.38;;
39896;SDS011;25567;48.276;14.242;2022-10-31T12:59:47;199.57;;;60.55;;
39896;SDS011;25567;48.276;14.242;2022-10-31T13:02:22;169.38;;;55.85;;
39896;SDS011;25567;48.276;14.242;2022-10-31T13:07:42;169.13;;;54.65;;
39896;SDS011;25567;48.276;14.242;2022-10-31T13:12:48;166.77;;;53.33;;
39896;SDS011;25567;48.276;14.242;2022-10-31T13:15:21;167.75;;;54.03;;
39896;SDS011;25567;48.276;14.242;2022-10-31T13:17:52;150.85;;;49.78;;
39896;SDS011;25567;48.276;14.242;2022-10-31T13:22:52;138.00;;;48.00;;
39896;SDS011;25567;48.276;14.242;2022-10-31T13:25:24;147.02;;;48.83;;
39896;SDS011;25567;48.276;14.242;2022-10-31T13:27:57;134.25;;;45.40;;
39896;SDS011;25567;48.276;14.242;2022-10-31T13:30:28;134.00;;;46.13;;
39896;SDS011;25567;48.276;14.242;2022-10-31T13:41:20;126.75;;;46.63;;
39896;SDS011;25567;48.276;14.242;2022-10-31T13:43:59;123.18;;;45.13;;
39896;SDS011;25567;48.276;14.242;2022-10-31T13:48:57;128.73;;;45.65;;
39896;SDS011;25567;48.276;14.242;2022-10-31T13:51:25;120.28;;;45.72;;
39896;SDS011;25567;48.276;14.242;2022-10-31T13:56:27;110.93;;;42.13;;
39896;SDS011;25567;48.276;14.242;2022-10-31T13:59:03;107.22;;;41.92;;
39896;SDS011;25567;48.276;14.242;2022-10-31T14:01:49;109.97;;;41.42;;
39896;SDS011;25567;48.276;14.242;2022-10-31T14:04:18;111.65;;;40.40;;
39896;SDS011;25567;48.276;14.242;2022-10-31T14:09:20;96.43;;;38.80;;
39896;SDS011;25567;48.276;14.242;2022-10-31T14:12:04;91.65;;;38.80;;
39896;SDS011;25567;48.276;14.242;2022-10-31T14:14:35;96.55;;;38.80;;
39896;SDS011;25567;48.276;14.242;2022-10-31T14:20:19;83.43;;;37.22;;
39896;SDS011;25567;48.276;14.242;2022-10-31T14:22:45;88.97;;;35.58;;
39896;SDS011;25567;48.276;14.242;2022-10-31T14:27:59;95.88;;;36.67;;
39896;SDS011;25567;48.276;14.242;2022-10-31T14:30:29;81.00;;;33.42;;
39896;SDS011;25567;48.276;14.242;2022-10-31T14:32:58;81.18;;;34.72;;
39896;SDS011;25567;48.276;14.242;2022-10-31T14:35:32;80.25;;;33.58;;
39896;SDS011;25567;48.276;14.242;2022-10-31T14:38:18;76.50;;;33.30;;
39896;SDS011;25567;48.276;14.242;2022-10-31T14:41:04;55.92;;;24.63;;
39896;SDS011;25567;48.276;14.242;2022-10-31T14:43:50;46.95;;;21.17;;
39896;SDS011;25567;48.276;14.242;2022-10-31T14:49:12;49.80;;;21.02;;
39896;SDS011;25567;48.276;14.242;2022-10-31T14:51:43;47.03;;;21.77;;
39896;SDS011;25567;48.276;14.242;2022-10-31T14:54:14;48.97;;;23.30;;
39896;SDS011;25567;48.276;14.242;2022-10-31T14:56:47;49.25;;;21.95;;
39896;SDS011;25567;48.276;14.242;2022-10-31T14:59:18;48.10;;;21.67;;
39896;SDS011;25567;48.276;14.242;2022-10-31T15:01:54;45.20;;;22.63;;
39896;SDS011;25567;48.276;14.242;2022-10-31T15:04:25;50.03;;;22.48;;
39896;SDS011;25567;48.276;14.242;2022-10-31T15:09:55;43.42;;;21.58;;
39896;SDS011;25567;48.276;14.242;2022-10-31T15:12:25;52.33;;;23.77;;
39896;SDS011;25567;48.276;14.242;2022-10-31T15:14:57;56.30;;;24.02;;
39896;SDS011;25567;48.276;14.242;2022-10-31T15:17:41;59.40;;;25.73;;
39896;SDS011;25567;48.276;14.242;2022-10-31T15:20:11;70.40;;;31.15;;
39896;SDS011;25567;48.276;14.242;2022-10-31T15:22:43;54.50;;;25.77;;
39896;SDS011;25567;48.276;14.242;2022-10-31T15:25:18;62.72;;;25.05;;
39896;SDS011;25567;48.276;14.242;2022-10-31T15:27:47;58.75;;;25.55;;
39896;SDS011;25567;48.276;14.242;2022-10-31T15:30:20;66.00;;;27.13;;
39896;SDS011;25567;48.276;14.242;2022-10-31T15:32:50;65.05;;;25.75;;
39896;SDS011;25567;48.276;14.242;2022-10-31T15:35:25;50.20;;;24.45;;
39896;SDS011;25567;48.276;14.242;2022-10-31T15:37:53;47.13;;;22.67;;
39896;SDS011;25567;48.276;14.242;2022-10-31T15:40:22;51.55;;;22.23;;
39896;SDS011;25567;48.276;14.242;2022-10-31T15:42:54;55.28;;;22.90;;
39896;SDS011;25567;48.276;14.242;2022-10-31T15:45:24;78.80;;;30.23;;
39896;SDS011;25567;48.276;14.242;2022-10-31T15:47:57;56.60;;;23.35;;
39896;SDS011;25567;48.276;14.242;2022-10-31T15:50:32;43.75;;;22.02;;
39896;SDS011;25567;48.276;14.242;2022-10-31T15:55:33;44.08;;;19.75;;
39896;SDS011;25567;48.276;14.242;2022-10-31T15:58:10;38.42;;;19.98;;
39896;SDS011;25567;48.276;14.242;2022-10-31T16:00:39;40.35;;;19.23;;
39896;SDS011;25567;48.276;14.242;2022-10-31T16:05:55;42.03;;;20.77;;
39896;SDS011;25567;48.276;14.242;2022-10-31T16:08:32;121.65;;;53.85;;
39896;SDS011;25567;48.276;14.242;2022-10-31T16:13:57;49.17;;;23.10;;
39896;SDS011;25567;48.276;14.242;2022-10-31T16:16:24;39.53;;;21.65;;
39896;SDS011;25567;48.276;14.242;2022-10-31T16:19:02;45.70;;;26.45;;
39896;SDS011;25567;48.276;14.242;2022-10-31T16:21:31;42.75;;;23.13;;
39896;SDS011;25567;48.276;14.242;2022-10-31T16:24:04;47.47;;;23.35;;
39896;SDS011;25567;48.276;14.242;2022-10-31T16:26:39;45.47;;;22.08;;
39896;SDS011;25567;48.276;14.242;2022-10-31T16:29:22;41.13;;;22.20;;
39896;SDS011;25567;48.276;14.242;2022-10-31T16:31:52;44.47;;;21.02;;
39896;SDS011;25567;48.276;14.242;2022-10-31T16:34:20;40.78;;;21.02;;
39896;SDS011;25567;48.276;14.242;2022-10-31T16:36:52;38.10;;;20.35;;
39896;SDS011;25567;48.276;14.242;2022-10-31T16:39:21;48.90;;;24.35;;
39896;SDS011;25567;48.276;14.242;2022-10-31T16:41:49;52.45;;;23.42;;
39896;SDS011;25567;48.276;14.242;2022-10-31T16:44:22;47.22;;;22.77;;
39896;SDS011;25567;48.276;14.242;2022-10-31T16:47:04;45.85;;;24.67;;
39896;SDS011;25567;48.276;14.242;2022-10-31T16:49:34;53.08;;;25.05;;